createdAt,value
2022-08-28T00:02:10.233Z,8.17
2022-08-28T00:04:38.349Z,5.80
2022-08-28T00:07:06.334Z,8.13
2022-08-28T00:09:34.286Z,4.80
2022-08-28T00:12:02.691Z,8.90
2022-08-28T00:14:30.693Z,6.67
2022-08-28T00:16:59.932Z,5.37
2022-08-28T00:19:27.881Z,8.63
2022-08-28T00:21:55.711Z,6.67
2022-08-28T00:24:23.664Z,7.77
2022-08-28T00:27:09.004Z,10.17
2022-08-28T00:29:37.129Z,8.77
2022-08-28T00:32:08.818Z,8.50
2022-08-28T00:34:36.967Z,6.13
2022-08-28T00:37:04.923Z,10.43
2022-08-28T00:39:32.969Z,8.07
2022-08-28T00:42:00.984Z,8.20
2022-08-28T00:44:30.462Z,12.47
2022-08-28T00:47:00.360Z,9.30
2022-08-28T00:49:32.184Z,10.30
2022-08-28T00:52:11.897Z,7.63
2022-08-28T00:54:58.532Z,7.30
2022-08-28T00:57:30.532Z,7.10
2022-08-28T00:59:58.452Z,10.60
2022-08-28T01:02:27.400Z,8.70
2022-08-28T01:04:56.949Z,7.10
2022-08-28T01:07:24.862Z,8.07
2022-08-28T01:09:55.506Z,9.80
2022-08-28T01:12:26.251Z,9.40
2022-08-28T01:14:58.498Z,11.13
2022-08-28T01:17:28.690Z,9.03
2022-08-28T01:20:02.926Z,8.90
2022-08-28T01:22:37.291Z,7.43
2022-08-28T01:25:09.791Z,7.77
2022-08-28T01:27:37.928Z,11.73
2022-08-28T01:30:06.590Z,6.93
2022-08-28T01:32:36.497Z,10.47
2022-08-28T01:35:06.946Z,9.77
2022-08-28T01:37:34.932Z,9.50
2022-08-28T01:40:03.430Z,8.37
2022-08-28T01:42:37.636Z,9.43
2022-08-28T01:45:07.380Z,9.47
2022-08-28T01:47:35.314Z,12.13
2022-08-28T01:50:03.199Z,11.57
2022-08-28T01:52:31.472Z,10.27
2022-08-28T01:54:59.438Z,11.27
2022-08-28T01:57:27.903Z,7.23
2022-08-28T01:59:57.092Z,8.90
2022-08-28T02:02:25.126Z,14.10
2022-08-28T02:04:53.806Z,9.10
2022-08-28T02:07:21.735Z,8.00
2022-08-28T02:09:49.942Z,12.43
2022-08-28T02:12:17.812Z,8.63
2022-08-28T02:14:45.720Z,7.67
2022-08-28T02:17:15.162Z,10.13
2022-08-28T02:19:43.126Z,11.10
2022-08-28T02:22:13.338Z,11.93
2022-08-28T02:24:41.755Z,10.80
2022-08-28T02:27:09.663Z,13.60
2022-08-28T02:29:37.528Z,10.23
2022-08-28T02:32:06.129Z,12.47
2022-08-28T02:34:35.998Z,9.87
2022-08-28T02:37:04.723Z,10.13
2022-08-28T02:39:32.573Z,10.60
2022-08-28T02:42:00.404Z,11.27
2022-08-28T02:44:28.325Z,9.13
2022-08-28T02:46:56.186Z,12.63
2022-08-28T02:49:24.651Z,11.97
2022-08-28T02:51:57.610Z,10.47
2022-08-28T02:54:26.290Z,14.20
2022-08-28T02:56:55.310Z,9.03
2022-08-28T02:59:23.362Z,11.60
2022-08-28T03:01:52.098Z,10.03
2022-08-28T03:04:20.196Z,14.63
2022-08-28T03:06:49.744Z,9.30
2022-08-28T03:09:19.064Z,10.27
2022-08-28T03:11:46.978Z,11.97
2022-08-28T03:14:14.843Z,9.10
2022-08-28T03:16:42.773Z,9.60
2022-08-28T03:19:10.634Z,7.03
2022-08-28T03:21:38.883Z,8.27
2022-08-28T03:24:06.163Z,10.40
2022-08-28T03:26:35.550Z,8.43
2022-08-28T03:29:03.657Z,8.93
2022-08-28T03:31:33.706Z,10.23
2022-08-28T03:34:02.099Z,8.63
2022-08-28T03:36:30.624Z,9.27
2022-08-28T03:39:01.740Z,12.33
2022-08-28T03:41:31.259Z,12.83
2022-08-28T03:44:01.816Z,9.80
2022-08-28T03:46:32.781Z,9.07
2022-08-28T03:49:01.227Z,11.50
2022-08-28T03:51:32.671Z,8.87
2022-08-28T03:54:01.498Z,9.43
2022-08-28T03:56:31.652Z,10.83
2022-08-28T03:59:04.311Z,10.60
2022-08-28T04:01:33.379Z,8.80
2022-08-28T04:04:01.994Z,10.47
2022-08-28T04:06:30.073Z,10.57
2022-08-28T04:09:00.014Z,7.17
2022-08-28T04:11:28.636Z,10.07
2022-08-28T04:13:56.802Z,9.70
2022-08-28T04:16:26.128Z,9.03
2022-08-28T04:18:54.439Z,7.53
2022-08-28T04:21:24.140Z,11.13
2022-08-28T04:23:52.118Z,11.43
2022-08-28T04:26:23.261Z,8.50
2022-08-28T04:28:52.707Z,8.20
2022-08-28T04:31:32.427Z,9.17
2022-08-28T04:34:03.022Z,13.37
2022-08-28T04:36:30.955Z,9.43
2022-08-28T04:38:59.206Z,8.27
2022-08-28T04:41:27.648Z,8.77
2022-08-28T04:43:57.489Z,10.87
2022-08-28T04:46:26.280Z,10.73
2022-08-28T04:48:59.444Z,9.17
2022-08-28T04:51:29.215Z,9.80
2022-08-28T04:53:57.650Z,10.27
2022-08-28T04:56:26.534Z,9.00
2022-08-28T04:58:54.671Z,8.73
2022-08-28T05:01:25.274Z,10.23
2022-08-28T05:03:57.411Z,8.77
2022-08-28T05:06:28.103Z,11.13
2022-08-28T05:08:58.991Z,12.80
2022-08-28T05:11:33.530Z,10.70
2022-08-28T05:14:04.184Z,8.90
2022-08-28T05:16:32.794Z,8.27
2022-08-28T05:19:01.131Z,10.67
2022-08-28T05:21:29.235Z,7.53
2022-08-28T05:23:59.320Z,8.83
2022-08-28T05:26:29.890Z,11.10
2022-08-28T05:28:59.856Z,10.60
2022-08-28T05:31:29.791Z,8.83
2022-08-28T05:33:59.029Z,11.83
2022-08-28T05:36:32.742Z,7.80
2022-08-28T05:39:04.576Z,11.07
2022-08-28T05:41:33.122Z,9.80
2022-08-28T05:44:03.624Z,9.57
2022-08-28T05:46:32.375Z,8.03
2022-08-28T05:49:00.623Z,8.73
2022-08-28T05:51:29.721Z,11.63
2022-08-28T05:53:58.479Z,7.03
2022-08-28T05:56:30.433Z,12.30
2022-08-28T05:59:00.019Z,8.27
2022-08-28T06:01:30.176Z,12.60
2022-08-28T06:03:59.847Z,8.83
2022-08-28T06:06:29.848Z,12.47
2022-08-28T06:08:59.314Z,10.03
2022-08-28T06:11:30.914Z,12.03
2022-08-28T06:14:01.737Z,8.53
2022-08-28T06:16:31.272Z,9.73
2022-08-28T06:19:00.617Z,7.23
2022-08-28T06:21:28.838Z,12.57
2022-08-28T06:23:57.046Z,7.80
2022-08-28T06:26:24.951Z,7.77
2022-08-28T06:28:54.594Z,9.23
2022-08-28T06:31:23.263Z,6.80
2022-08-28T06:33:53.870Z,10.00
2022-08-28T06:36:21.966Z,9.00
2022-08-28T06:38:49.899Z,10.73
2022-08-28T06:41:18.340Z,7.07
2022-08-28T06:43:46.208Z,7.97
2022-08-28T06:46:15.564Z,7.13
2022-08-28T06:48:43.567Z,6.80
2022-08-28T06:51:12.991Z,7.97
2022-08-28T06:53:43.107Z,9.07
2022-08-28T06:56:13.651Z,11.47
2022-08-28T06:58:53.629Z,6.83
2022-08-28T07:01:25.428Z,8.03
2022-08-28T07:03:55.155Z,8.73
2022-08-28T07:06:24.691Z,8.97
2022-08-28T07:08:52.716Z,8.80
2022-08-28T07:11:26.086Z,8.80
2022-08-28T07:13:55.232Z,6.80
2022-08-28T07:16:26.581Z,9.17
2022-08-28T07:18:54.615Z,7.00
2022-08-28T07:21:23.235Z,11.23
2022-08-28T07:23:51.602Z,8.13
2022-08-28T07:26:23.480Z,8.43
2022-08-28T07:28:51.912Z,12.63
2022-08-28T07:31:25.853Z,7.00
2022-08-28T07:33:54.887Z,7.03
2022-08-28T07:36:29.591Z,10.80
2022-08-28T07:38:59.355Z,9.53
2022-08-28T07:41:29.251Z,7.63
2022-08-28T07:44:14.610Z,11.17
2022-08-28T07:46:44.850Z,6.43
2022-08-28T07:49:15.500Z,8.63
2022-08-28T07:51:43.653Z,6.73
2022-08-28T07:54:17.592Z,8.63
2022-08-28T07:56:46.685Z,9.03
2022-08-28T07:59:19.274Z,10.43
2022-08-28T08:01:50.598Z,6.30
2022-08-28T08:04:19.906Z,6.77
2022-08-28T08:06:47.993Z,7.93
2022-08-28T08:09:19.045Z,5.80
2022-08-28T08:11:49.078Z,8.47
2022-08-28T08:14:18.034Z,10.60
2022-08-28T08:16:48.134Z,7.00
2022-08-28T08:19:17.088Z,5.47
2022-08-28T08:21:48.298Z,7.47
2022-08-28T08:24:22.090Z,7.67
2022-08-28T08:26:58.942Z,11.80
2022-08-28T08:29:31.217Z,6.03
2022-08-28T08:32:05.813Z,6.03
2022-08-28T08:34:36.254Z,4.37
2022-08-28T08:37:05.446Z,7.80
2022-08-28T08:39:33.408Z,7.47
2022-08-28T08:42:02.892Z,9.03
2022-08-28T08:44:35.256Z,7.40
2022-08-28T08:47:18.394Z,8.00
2022-08-28T08:49:52.921Z,6.77
2022-08-28T08:52:36.347Z,8.27
2022-08-28T08:55:17.308Z,5.47
2022-08-28T08:58:07.647Z,7.10
2022-08-28T09:00:40.460Z,5.70
2022-08-28T09:03:16.671Z,6.33
2022-08-28T09:05:50.233Z,5.27
2022-08-28T09:08:27.450Z,6.63
2022-08-28T09:11:03.494Z,6.40
2022-08-28T09:13:41.171Z,7.90
2022-08-28T09:16:29.498Z,7.43
2022-08-28T09:19:00.167Z,5.20
2022-08-28T09:21:31.994Z,5.17
2022-08-28T09:24:05.776Z,6.23
2022-08-28T09:26:35.498Z,7.20
2022-08-28T09:29:06.776Z,5.50
2022-08-28T09:31:38.157Z,6.53
2022-08-28T09:34:27.633Z,5.83
2022-08-28T09:36:56.675Z,4.83
2022-08-28T09:39:26.515Z,5.23
2022-08-28T09:42:24.589Z,7.70
2022-08-28T09:45:00.032Z,10.20
2022-08-28T09:47:46.019Z,6.93
2022-08-28T09:50:32.541Z,3.73
2022-08-28T09:53:15.479Z,9.23
2022-08-28T09:55:52.624Z,3.93
2022-08-28T09:58:22.326Z,5.73
2022-08-28T10:00:54.379Z,4.47
2022-08-28T10:03:27.015Z,4.30
2022-08-28T10:06:04.667Z,3.83
2022-08-28T10:08:51.768Z,4.87
2022-08-28T10:11:33.010Z,7.23
2022-08-28T10:14:12.860Z,4.03
2022-08-28T10:16:56.767Z,4.17
2022-08-28T10:19:40.045Z,6.17
2022-08-28T10:22:22.939Z,6.03
2022-08-28T10:25:03.881Z,6.07
2022-08-28T10:27:48.984Z,4.80
2022-08-28T10:30:21.616Z,8.40
2022-08-28T10:33:12.806Z,3.70
2022-08-28T10:35:49.235Z,5.13
2022-08-28T10:38:24.998Z,3.93
2022-08-28T10:41:00.594Z,4.80
2022-08-28T10:43:33.833Z,4.47
2022-08-28T10:46:05.660Z,5.03
2022-08-28T10:48:40.524Z,3.83
2022-08-28T10:51:14.409Z,4.23
2022-08-28T10:53:47.359Z,3.03
2022-08-28T10:56:18.874Z,4.33
2022-08-28T10:58:49.889Z,4.53
2022-08-28T11:01:27.880Z,4.83
2022-08-28T11:03:59.461Z,6.10
2022-08-28T11:06:32.592Z,7.83
2022-08-28T11:09:24.680Z,4.73
2022-08-28T11:12:01.031Z,3.70
2022-08-28T11:14:33.720Z,2.70
2022-08-28T11:17:06.860Z,4.33
2022-08-28T11:19:53.323Z,3.37
2022-08-28T11:22:23.895Z,7.17
2022-08-28T11:25:07.665Z,4.13
2022-08-28T11:27:39.134Z,5.97
2022-08-28T11:30:35.429Z,3.93
2022-08-28T11:33:07.398Z,2.07
2022-08-28T11:35:45.605Z,2.93
2022-08-28T11:38:33.963Z,3.93
2022-08-28T11:41:14.471Z,2.50
2022-08-28T11:43:49.634Z,3.83
2022-08-28T11:46:28.825Z,4.03
2022-08-28T11:48:58.406Z,5.57
2022-08-28T11:51:45.422Z,3.90
2022-08-28T11:54:32.195Z,3.90
2022-08-28T11:57:14.035Z,5.53
2022-08-28T11:59:58.601Z,4.03
2022-08-28T12:02:54.241Z,3.43
2022-08-28T12:05:45.202Z,6.03
2022-08-28T12:08:14.792Z,3.20
2022-08-28T12:11:00.380Z,3.73
2022-08-28T12:13:53.822Z,4.70
2022-08-28T12:16:22.822Z,5.90
2022-08-28T12:19:03.413Z,3.83
2022-08-28T12:21:36.263Z,3.77
2022-08-28T12:24:09.863Z,3.70
2022-08-28T12:26:43.177Z,3.40
2022-08-28T12:29:28.827Z,4.70
2022-08-28T12:32:21.076Z,5.10
2022-08-28T12:35:05.693Z,2.87
2022-08-28T12:37:51.362Z,2.73
2022-08-28T12:40:22.996Z,3.23
2022-08-28T12:42:55.547Z,3.37
2022-08-28T12:45:29.042Z,3.37
2022-08-28T12:48:00.297Z,3.07
2022-08-28T12:50:33.174Z,4.37
2022-08-28T12:53:05.243Z,4.23
2022-08-28T12:55:34.079Z,3.17
2022-08-28T12:58:01.987Z,3.60
2022-08-28T13:00:34.824Z,3.30
2022-08-28T13:03:04.348Z,3.37
2022-08-28T13:05:35.224Z,4.63
2022-08-28T13:08:06.639Z,5.30
2022-08-28T13:10:37.458Z,3.77
2022-08-28T13:13:10.778Z,4.17
2022-08-28T13:16:01.863Z,5.07
2022-08-28T13:19:10.670Z,3.43
2022-08-28T13:21:52.484Z,2.33
2022-08-28T13:24:46.584Z,3.63
2022-08-28T13:27:21.860Z,3.57
2022-08-28T13:30:02.805Z,4.07
2022-08-28T13:32:34.728Z,2.97
2022-08-28T13:35:16.839Z,3.47
2022-08-28T13:37:47.799Z,3.47
2022-08-28T13:40:38.452Z,3.97
2022-08-28T13:43:10.161Z,3.37
2022-08-28T13:45:43.411Z,2.90
2022-08-28T13:48:14.189Z,2.60
2022-08-28T13:50:46.854Z,2.60
2022-08-28T13:53:16.978Z,2.17
2022-08-28T13:55:46.048Z,2.23
2022-08-28T13:58:15.378Z,4.40
2022-08-28T14:00:46.400Z,2.83
2022-08-28T14:03:33.641Z,2.33
2022-08-28T14:06:02.945Z,4.27
2022-08-28T14:08:30.983Z,2.73
2022-08-28T14:10:59.030Z,2.70
2022-08-28T14:13:27.822Z,5.00
2022-08-28T14:15:56.300Z,2.23
2022-08-28T14:18:26.604Z,3.30
2022-08-28T14:20:54.519Z,3.70
2022-08-28T14:23:22.965Z,3.23
2022-08-28T14:25:50.911Z,2.37
2022-08-28T14:28:19.043Z,2.10
2022-08-28T14:30:48.550Z,2.43
2022-08-28T14:33:18.691Z,1.93
2022-08-28T14:35:50.129Z,2.40
2022-08-28T14:38:18.344Z,3.90
2022-08-28T14:40:46.432Z,2.57
2022-08-28T14:43:15.686Z,3.73
2022-08-28T14:45:45.616Z,2.87
2022-08-28T14:48:14.304Z,3.47
2022-08-28T14:50:42.513Z,3.97
2022-08-28T14:53:12.621Z,1.80
2022-08-28T14:55:42.714Z,2.87
2022-08-28T14:58:10.591Z,1.53
2022-08-28T15:00:42.960Z,3.43
2022-08-28T15:03:11.351Z,2.70
2022-08-28T15:05:39.422Z,2.97
2022-08-28T15:08:08.097Z,3.50
2022-08-28T15:10:38.727Z,4.10
2022-08-28T15:13:07.690Z,3.20
2022-08-28T15:15:39.251Z,2.80
2022-08-28T15:18:07.279Z,3.27
2022-08-28T15:20:39.027Z,3.13
2022-08-28T15:23:07.254Z,1.87
2022-08-28T15:25:35.243Z,4.00
2022-08-28T15:28:04.869Z,2.07
2022-08-28T15:30:32.831Z,8.67
2022-08-28T15:33:00.747Z,2.80
2022-08-28T15:35:28.842Z,3.73
2022-08-28T15:37:57.062Z,2.83
2022-08-28T15:40:42.482Z,2.63
2022-08-28T15:43:11.798Z,2.70
2022-08-28T15:45:40.312Z,3.87
2022-08-28T15:48:08.923Z,3.43
2022-08-28T15:50:36.935Z,6.83
2022-08-28T15:53:06.658Z,3.00
2022-08-28T15:55:36.690Z,3.70
2022-08-28T15:58:13.888Z,3.93
2022-08-28T16:00:43.984Z,2.13
2022-08-28T16:03:11.951Z,4.40
2022-08-28T16:05:41.073Z,1.50
2022-08-28T16:08:10.981Z,2.87
2022-08-28T16:10:39.155Z,3.10
2022-08-28T16:13:07.098Z,2.80
2022-08-28T16:15:35.170Z,4.27
2022-08-28T16:18:08.734Z,1.57
2022-08-28T16:20:37.192Z,2.37
2022-08-28T16:23:05.111Z,1.80
2022-08-28T16:25:33.006Z,3.77
2022-08-28T16:28:00.990Z,3.47
2022-08-28T16:30:28.879Z,2.30
2022-08-28T16:32:56.743Z,3.10
2022-08-28T16:35:26.652Z,2.97
2022-08-28T16:37:54.543Z,3.50
2022-08-28T16:40:23.431Z,3.07
2022-08-28T16:42:52.229Z,3.70
2022-08-28T16:45:20.891Z,4.20
2022-08-28T16:47:49.157Z,4.70
2022-08-28T16:50:18.204Z,3.87
2022-08-28T16:52:47.669Z,4.30
2022-08-28T16:55:15.596Z,5.40
2022-08-28T16:57:44.004Z,3.90
2022-08-28T17:00:14.408Z,2.30
2022-08-28T17:02:42.802Z,4.67
2022-08-28T17:05:12.069Z,4.17
2022-08-28T17:07:40.842Z,2.40
2022-08-28T17:10:12.474Z,2.07
2022-08-28T17:12:40.865Z,2.50
2022-08-28T17:15:10.326Z,2.67
2022-08-28T17:17:39.502Z,2.20
2022-08-28T17:20:08.758Z,3.40
2022-08-28T17:22:35.651Z,4.27
2022-08-28T17:25:07.464Z,4.37
2022-08-28T17:27:36.956Z,5.03
2022-08-28T17:30:05.597Z,2.83
2022-08-28T17:32:33.747Z,3.93
2022-08-28T17:35:02.150Z,4.27
2022-08-28T17:37:31.664Z,3.80
2022-08-28T17:39:59.608Z,4.37
2022-08-28T17:42:27.607Z,3.40
2022-08-28T17:44:56.919Z,3.63
2022-08-28T17:47:27.404Z,5.10
2022-08-28T17:49:58.894Z,3.73
2022-08-28T17:52:27.466Z,4.33
2022-08-28T17:54:55.404Z,4.77
2022-08-28T17:57:24.119Z,4.23
2022-08-28T17:59:52.278Z,3.50
2022-08-28T18:02:21.504Z,4.57
2022-08-28T18:04:49.542Z,3.07
2022-08-28T18:07:17.898Z,3.77
2022-08-28T18:09:45.835Z,5.17
2022-08-28T18:12:13.910Z,2.17
2022-08-28T18:14:42.347Z,3.00
2022-08-28T18:17:11.720Z,2.60
2022-08-28T18:19:41.120Z,3.60
2022-08-28T18:22:10.615Z,5.33
2022-08-28T18:24:38.935Z,4.70
2022-08-28T18:27:07.498Z,2.53
2022-08-28T18:29:35.604Z,3.70
2022-08-28T18:32:04.526Z,2.77
2022-08-28T18:34:32.470Z,4.33
2022-08-28T18:37:01.811Z,2.27
2022-08-28T18:39:30.195Z,2.50
2022-08-28T18:41:58.207Z,3.37
2022-08-28T18:44:26.259Z,4.77
2022-08-28T18:46:54.191Z,3.70
2022-08-28T18:49:22.197Z,4.03
2022-08-28T18:51:50.158Z,2.90
2022-08-28T18:54:20.467Z,5.20
2022-08-28T18:56:50.419Z,2.30
2022-08-28T18:59:18.771Z,3.53
2022-08-28T19:01:46.772Z,4.30
2022-08-28T19:04:14.732Z,5.57
2022-08-28T19:06:42.904Z,2.93
2022-08-28T19:09:20.191Z,3.13
2022-08-28T19:11:50.844Z,4.73
2022-08-28T19:14:18.746Z,4.27
2022-08-28T19:16:47.109Z,4.47
2022-08-28T19:19:15.389Z,5.10
2022-08-28T19:21:43.967Z,2.83
2022-08-28T19:24:11.950Z,4.83
2022-08-28T19:26:39.877Z,5.07
2022-08-28T19:29:09.088Z,3.43
2022-08-28T19:31:37.701Z,3.67
2022-08-28T19:34:07.404Z,4.10
2022-08-28T19:36:36.958Z,3.73
2022-08-28T19:39:05.706Z,4.43
2022-08-28T19:41:33.834Z,5.50
2022-08-28T19:44:01.722Z,3.87
2022-08-28T19:46:31.347Z,4.17
2022-08-28T19:49:01.073Z,2.93
2022-08-28T19:51:29.625Z,4.67
2022-08-28T19:53:59.121Z,5.13
2022-08-28T19:56:28.259Z,7.10
2022-08-28T19:58:58.332Z,5.67
2022-08-28T20:01:29.300Z,5.47
2022-08-28T20:03:59.692Z,3.77
2022-08-28T20:06:28.261Z,3.23
2022-08-28T20:08:56.149Z,3.97
2022-08-28T20:11:30.726Z,2.70
2022-08-28T20:14:03.744Z,4.97
2022-08-28T20:16:37.619Z,5.20
2022-08-28T20:19:10.308Z,5.97
2022-08-28T20:21:39.744Z,4.77
2022-08-28T20:24:10.069Z,5.17
2022-08-28T20:26:38.105Z,6.03
2022-08-28T20:29:07.821Z,3.37
2022-08-28T20:31:40.228Z,3.20
2022-08-28T20:34:10.098Z,6.10
2022-08-28T20:36:38.069Z,3.17
2022-08-28T20:39:07.200Z,5.77
2022-08-28T20:41:36.710Z,4.40
2022-08-28T20:44:06.292Z,5.05
2022-08-28T20:46:40.067Z,3.43
2022-08-28T20:49:10.303Z,3.13
2022-08-28T20:51:55.948Z,4.47
2022-08-28T20:54:27.347Z,5.73
2022-08-28T20:56:57.205Z,2.00
2022-08-28T20:59:35.489Z,3.43
2022-08-28T21:02:10.503Z,5.13
2022-08-28T21:04:41.868Z,3.67
2022-08-28T21:07:10.750Z,2.40
2022-08-28T21:10:06.974Z,2.97
2022-08-28T21:12:27.362Z,3.93
2022-08-28T21:14:55.356Z,3.40
2022-08-28T21:17:30.011Z,2.73
2022-08-28T21:20:01.048Z,3.80
2022-08-28T21:22:31.386Z,3.00
2022-08-28T21:24:59.397Z,3.60
2022-08-28T21:27:27.908Z,4.53
2022-08-28T21:29:57.967Z,4.00
2022-08-28T21:32:26.425Z,3.20
2022-08-28T21:34:55.019Z,3.87
2022-08-28T21:37:24.557Z,4.57
2022-08-28T21:39:52.444Z,3.50
2022-08-28T21:42:24.471Z,3.20
2022-08-28T21:44:52.807Z,5.30
2022-08-28T21:47:21.259Z,4.80
2022-08-28T21:49:50.313Z,3.93
2022-08-28T21:52:18.703Z,4.40
2022-08-28T21:54:47.902Z,5.13
2022-08-28T21:57:16.266Z,6.23
2022-08-28T21:59:44.358Z,6.73
2022-08-28T22:02:12.311Z,4.17
2022-08-28T22:04:40.379Z,6.30
2022-08-28T22:07:09.785Z,4.23
2022-08-28T22:09:37.777Z,6.10
2022-08-28T22:12:08.899Z,3.77
2022-08-28T22:14:36.906Z,6.00
2022-08-28T22:17:10.176Z,6.37
2022-08-28T22:19:39.691Z,3.87
2022-08-28T22:22:33.363Z,4.53
2022-08-28T22:25:01.287Z,5.17
2022-08-28T22:27:32.015Z,4.43
2022-08-28T22:29:59.960Z,5.87
2022-08-28T22:32:27.960Z,3.37
2022-08-28T22:34:56.154Z,4.83
2022-08-28T22:37:25.704Z,6.23
2022-08-28T22:39:53.760Z,4.27
2022-08-28T22:42:22.085Z,6.57
2022-08-28T22:44:51.391Z,3.70
2022-08-28T22:47:19.386Z,5.27
2022-08-28T22:49:47.356Z,4.63
2022-08-28T22:52:16.103Z,7.80
2022-08-28T22:54:44.189Z,6.60
2022-08-28T22:57:12.128Z,7.53
2022-08-28T22:59:39.976Z,5.87
2022-08-28T23:02:09.331Z,8.07
2022-08-28T23:04:37.224Z,5.83
2022-08-28T23:07:05.708Z,7.17
2022-08-28T23:09:35.959Z,5.67
2022-08-28T23:12:04.618Z,6.63
2022-08-28T23:14:32.510Z,6.70
2022-08-28T23:17:00.540Z,4.33
2022-08-28T23:19:30.334Z,5.73
2022-08-28T23:21:58.899Z,6.27
2022-08-28T23:24:26.877Z,6.23
2022-08-28T23:26:54.723Z,6.23
2022-08-28T23:29:22.666Z,6.50
2022-08-28T23:31:50.627Z,6.20
2022-08-28T23:34:18.705Z,6.20
2022-08-28T23:36:47.931Z,6.30
2022-08-28T23:39:15.953Z,5.40
2022-08-28T23:41:43.855Z,4.53
2022-08-28T23:44:11.707Z,5.80
2022-08-28T23:46:41.254Z,7.17
2022-08-28T23:49:10.415Z,8.77
2022-08-28T23:51:38.559Z,7.33
2022-08-28T23:54:08.823Z,6.07
2022-08-28T23:56:37.160Z,7.20
2022-08-28T23:59:05.942Z,6.63
